Forside
METAR-TAF:

METAR-TAF

Lufthavne :

Ludington, Michigan, USA

Breddekreds: 43-58N, længdekreds: 086-24W, højde: 197 m

Aktuelle vejr

Denne rapport blev lavet for 23 minutter siden, kl. 17:16 UTC
Vind 13 kt fra sydsydvest med vindstød på up til 18 kt
Temperatur 4°C
Fugtighed 75%
Tryk 1011 hPa
Sigt: 16.1 km
skyfri

METAR: KLDM 231716Z AUTO 20013G18KT 10SM CLR 04/00 A2986 RMK AO2 T00400000

Tid: 12:39 (17:39 UTC)


TAF: fraværende

Vejrobservationer og prognoser fra mere end 4000 lufthavne (METAR og TAF).

De gule og røde prikker repræsenterer de meteorologiske stationer.

Flyt musen over at se navnet på stationen.

Så klik over at se vejr observationer og prognoser.

At skifte det kort: Klik på de grønne knapper med et sort kors for at zoome ind; på den grønne knap med en bindestreg for at zoome ud; eller på de grønne pile for tilstødende kort.


METAR-TAF: